Time;durP1;ratioP1;P1;durP2;ratioP2;P2;SDS_P1;SDS_P2;PMS_P1;PMS_P2;Temp;Humidity;BMP_temperature;BMP_pressure;BME280_temperature;BME280_humidity;BME280_pressure;Samples;Min_cycle;Max_cycle;Signal;HPM_P1;HPM_P2
2021/01/30 00:02:12;;;;;;;20.83;9.30;;;;;;;7.02;84.72;95802.56;4902318;29;20079;-81
2021/01/30 00:04:38;;;;;;;11.10;6.75;;;;;;;6.97;85.17;95794.94;4918270;29;20047;-80
2021/01/30 00:07:04;;;;;;;20.80;11.05;;;;;;;6.93;85.68;95804.09;4918379;29;20036;-80
2021/01/30 00:09:30;;;;;;;44.42;19.75;;;;;;;7.03;85.64;95805.13;4905719;29;20031;-80
2021/01/30 00:11:58;;;;;;;13.70;6.82;;;;;;;7.04;84.33;95790.03;4905259;29;20026;-80
2021/01/30 00:14:26;;;;;;;7.60;4.30;;;;;;;7.21;79.50;95786.06;4920772;29;20043;-79
2021/01/30 00:16:52;;;;;;;5.80;3.53;;;;;;;7.37;77.49;95787.41;4920960;29;20036;-79
2021/01/30 00:19:17;;;;;;;9.18;5.28;;;;;;;7.46;77.45;95783.19;4920680;29;20042;-80
2021/01/30 00:21:51;;;;;;;6.10;3.55;;;;;;;7.53;75.79;95779.94;4905116;29;20430;-79
2021/01/30 00:24:17;;;;;;;8.55;4.30;;;;;;;7.54;75.98;95770.97;4904991;29;20057;-79
2021/01/30 00:26:42;;;;;;;6.18;3.40;;;;;;;7.59;74.35;95765.31;4920883;29;20031;-79
2021/01/30 00:29:12;;;;;;;6.07;3.70;;;;;;;7.60;74.55;95780.28;4936350;29;20058;-79
2021/01/30 00:31:38;;;;;;;16.05;8.18;;;;;;;7.62;74.63;95775.72;4920735;29;20098;-79
2021/01/30 00:34:03;;;;;;;11.63;5.75;;;;;;;7.58;74.83;95763.63;4920802;29;20130;-79
2021/01/30 00:36:29;;;;;;;8.80;4.38;;;;;;;7.52;74.04;95756.97;4905119;29;20034;-81
2021/01/30 00:38:54;;;;;;;9.15;5.18;;;;;;;7.48;74.82;95757.31;4917715;29;20183;-79
2021/01/30 00:41:20;;;;;;;13.40;5.68;;;;;;;7.23;75.97;95741.59;4901722;29;20523;-81
2021/01/30 00:43:45;;;;;;;10.77;4.53;;;;;;;7.14;78.22;95740.47;4933346;29;20036;-79
2021/01/30 00:46:11;;;;;;;15.85;6.75;;;;;;;7.00;78.91;95746.03;4917088;29;20039;-79
2021/01/30 00:48:37;;;;;;;10.40;5.40;;;;;;;6.95;80.18;95745.53;4917787;29;20028;-79
2021/01/30 00:51:02;;;;;;;19.13;7.25;;;;;;;6.87;81.54;95751.44;4916506;29;20389;-80
2021/01/30 00:53:28;;;;;;;17.13;7.32;;;;;;;6.80;83.00;95749.38;4917104;29;20488;-80
2021/01/30 00:55:53;;;;;;;24.23;7.40;;;;;;;6.71;83.83;95755.34;4901849;29;20035;-79
2021/01/30 00:58:19;;;;;;;0.80;0.65;;;;;;;6.53;83.00;95733.69;4901495;29;20032;-81
2021/01/30 01:00:44;;;;;;;1.13;0.90;;;;;;;6.43;84.51;95740.63;4901398;29;20067;-81
2021/01/30 01:03:12;;;;;;;1.30;0.82;;;;;;;6.32;85.99;95736.13;4917010;29;20035;-79
2021/01/30 01:05:38;;;;;;;0.75;0.75;;;;;;;6.20;87.60;95728.25;4901476;29;20505;-80
2021/01/30 01:08:03;;;;;;;2.83;0.63;;;;;;;6.11;89.58;95727.13;4901929;29;20063;-81
2021/01/30 01:10:29;;;;;;;1.70;1.05;;;;;;;6.12;90.32;95722.66;4901411;29;20544;-80
2021/01/30 01:12:55;;;;;;;0.65;0.65;;;;;;;6.10;89.12;95722.75;4901262;29;20031;-80
2021/01/30 01:15:21;;;;;;;0.80;0.80;;;;;;;6.05;90.97;95718.75;4900931;29;20485;-81
2021/01/30 01:17:47;;;;;;;1.35;1.25;;;;;;;5.94;91.41;95717.72;4916611;29;20035;-80
2021/01/30 01:20:17;;;;;;;0.43;0.43;;;;;;;5.97;91.51;95717.50;4935969;29;20116;-80
2021/01/30 01:22:42;;;;;;;0.82;0.82;;;;;;;5.94;92.44;95719.53;4904304;29;20027;-80
2021/01/30 01:25:09;;;;;;;2.65;1.83;;;;;;;5.85;94.80;95701.59;4904332;29;20031;-80
2021/01/30 01:27:34;;;;;;;0.40;0.40;;;;;;;5.82;96.49;95707.97;4919629;29;20034;-81
2021/01/30 01:30:00;;;;;;;0.32;0.32;;;;;;;5.78;98.22;95695.88;4919692;29;20138;-80
2021/01/30 01:32:26;;;;;;;0.70;0.70;;;;;;;5.77;99.69;95691.56;4904225;29;20031;-81
2021/01/30 01:34:52;;;;;;;0.80;0.43;;;;;;;5.80;100.00;95688.69;4919727;29;20047;-80
2021/01/30 01:37:18;;;;;;;0.32;0.22;;;;;;;5.84;100.00;95684.84;4919523;29;20068;-80
2021/01/30 01:39:43;;;;;;;0.68;0.68;;;;;;;5.87;100.00;95682.00;4903732;29;20086;-80
2021/01/30 01:42:12;;;;;;;15.25;1.23;;;;;;;5.90;100.00;95689.75;4919518;29;20043;-80
2021/01/30 01:44:39;;;;;;;0.95;0.38;;;;;;;5.97;100.00;95674.19;4935241;29;20412;-80
2021/01/30 01:47:08;;;;;;;0.45;0.45;;;;;;;5.93;100.00;95673.59;4919529;29;20023;-80
2021/01/30 01:49:35;;;;;;;0.63;0.63;;;;;;;5.93;100.00;95657.69;4919356;29;20035;-80
2021/01/30 01:52:21;;;;;;;0.25;0.25;;;;;;;6.03;100.00;95662.31;4919112;29;20024;-80
2021/01/30 01:54:49;;;;;;;1.08;0.98;;;;;;;6.03;100.00;95657.81;4935086;29;20019;-80
2021/01/30 01:57:15;;;;;;;2.80;0.90;;;;;;;6.02;100.00;95655.31;4919681;29;20028;-81
2021/01/30 01:59:43;;;;;;;0.47;0.47;;;;;;;6.06;100.00;95659.44;4919355;29;20385;-80
2021/01/30 02:02:09;;;;;;;2.47;1.45;;;;;;;6.00;100.00;95647.44;4903392;29;20019;-80
2021/01/30 02:04:35;;;;;;;1.38;1.27;;;;;;;6.01;100.00;95646.47;4903046;29;20152;-80
2021/01/30 02:07:00;;;;;;;8.10;2.42;;;;;;;6.04;100.00;95648.06;4903216;29;20039;-80
2021/01/30 02:09:26;;;;;;;0.70;0.70;;;;;;;6.04;100.00;95653.38;4915868;29;20056;-80
2021/01/30 02:12:11;;;;;;;2.10;0.75;;;;;;;5.94;100.00;95651.41;4899913;29;20034;-80
2021/01/30 02:14:40;;;;;;;0.88;0.60;;;;;;;5.90;100.00;95644.66;4915646;29;20547;-80
2021/01/30 02:17:20;;;;;;;0.90;0.82;;;;;;;5.83;100.00;95639.88;4900180;29;20032;-80
2021/01/30 02:20:13;;;;;;;1.33;0.35;;;;;;;5.81;100.00;95647.09;4915566;29;20032;-80
2021/01/30 02:22:50;;;;;;;1.27;0.85;;;;;;;5.80;100.00;95640.94;4918666;29;20388;-79
2021/01/30 02:25:31;;;;;;;0.75;0.60;;;;;;;5.74;100.00;95641.41;4918947;29;20059;-80
2021/01/30 02:28:06;;;;;;;0.77;0.75;;;;;;;5.73;100.00;95628.22;4918426;29;20483;-80
2021/01/30 02:30:42;;;;;;;0.30;0.30;;;;;;;5.80;100.00;95640.09;4918385;29;20071;-80
2021/01/30 02:33:29;;;;;;;1.10;0.98;;;;;;;5.79;100.00;95638.38;4936254;29;20078;-80
2021/01/30 02:36:31;;;;;;;1.90;1.27;;;;;;;5.65;100.00;95641.22;4918300;29;20115;-80
2021/01/30 02:39:00;;;;;;;1.00;0.88;;;;;;;5.69;100.00;95642.69;4918907;29;20028;-80
2021/01/30 02:41:32;;;;;;;0.80;0.77;;;;;;;5.68;100.00;95641.84;4918380;29;20035;-80
2021/01/30 02:44:01;;;;;;;1.98;1.60;;;;;;;5.67;100.00;95639.28;4903217;29;20036;-80
2021/01/30 02:46:30;;;;;;;1.05;1.00;;;;;;;5.77;100.00;95649.13;4902946;29;20027;-80
2021/01/30 02:49:02;;;;;;;3.33;1.85;;;;;;;5.81;100.00;95649.75;4917860;29;20412;-80
2021/01/30 02:51:33;;;;;;;4.83;2.30;;;;;;;5.75;100.00;95653.69;4902775;29;20024;-80
2021/01/30 02:54:01;;;;;;;1.38;0.75;;;;;;;5.65;100.00;95642.06;4918199;29;20267;-80
2021/01/30 02:56:26;;;;;;;0.43;0.40;;;;;;;5.53;100.00;95645.63;4918785;29;20115;-80
2021/01/30 02:58:57;;;;;;;0.68;0.68;;;;;;;5.61;100.00;95651.19;4918557;29;20059;-81
2021/01/30 03:01:23;;;;;;;2.67;1.92;;;;;;;5.70;100.00;95647.88;4918812;29;20024;-80
2021/01/30 03:03:53;;;;;;;0.65;0.60;;;;;;;5.75;100.00;95653.69;4918205;29;20063;-80
2021/01/30 03:06:57;;;;;;;0.80;0.77;;;;;;;5.75;100.00;95648.38;4918609;29;20122;-79
2021/01/30 03:09:46;;;;;;;2.42;1.75;;;;;;;5.74;100.00;95651.16;4911408;29;20036;-80
2021/01/30 03:12:13;;;;;;;5.47;2.55;;;;;;;5.78;100.00;95645.50;4934010;29;20031;-75
2021/01/30 03:14:45;;;;;;;1.33;1.17;;;;;;;5.73;100.00;95647.66;4932938;29;20468;-79
2021/01/30 03:17:11;;;;;;;0.80;0.80;;;;;;;5.78;100.00;95653.44;4918013;29;20028;-79
2021/01/30 03:19:37;;;;;;;0.70;0.63;;;;;;;5.72;100.00;95653.91;4905174;29;20035;-79
2021/01/30 03:22:08;;;;;;;4.90;1.75;;;;;;;5.73;100.00;95655.59;4920945;29;20500;-79
2021/01/30 03:24:38;;;;;;;0.93;0.85;;;;;;;5.71;100.00;95652.22;4921156;29;20039;-77
2021/01/30 03:27:04;;;;;;;3.22;2.15;;;;;;;5.72;100.00;95656.56;4933943;29;20513;-78
2021/01/30 03:29:30;;;;;;;3.85;2.50;;;;;;;5.71;100.00;95660.19;4920735;29;20134;-78
2021/01/30 03:31:55;;;;;;;5.07;2.30;;;;;;;5.74;100.00;95661.75;4936807;29;20159;-78
2021/01/30 03:34:21;;;;;;;3.10;2.13;;;;;;;5.79;100.00;95668.41;4936601;29;20059;-78
2021/01/30 03:36:46;;;;;;;1.90;1.45;;;;;;;5.79;100.00;95678.16;4920542;29;20558;-78
2021/01/30 03:39:16;;;;;;;0.95;0.85;;;;;;;5.77;100.00;95678.31;4905043;29;20034;-78
2021/01/30 03:41:42;;;;;;;11.23;1.88;;;;;;;5.85;100.00;95681.25;4920560;29;20574;-78
2021/01/30 03:44:09;;;;;;;2.67;1.98;;;;;;;5.87;100.00;95679.38;4920674;29;20047;-77
2021/01/30 03:46:35;;;;;;;1.85;1.75;;;;;;;5.91;100.00;95675.50;4917551;29;20036;-79
2021/01/30 03:49:00;;;;;;;1.90;1.73;;;;;;;5.93;100.00;95678.06;4918882;29;20408;-77
2021/01/30 03:51:26;;;;;;;3.10;1.67;;;;;;;5.88;100.00;95677.53;4901570;29;20111;-78
2021/01/30 03:53:52;;;;;;;2.40;2.10;;;;;;;5.86;100.00;95679.47;4920661;29;20035;-78
2021/01/30 03:56:17;;;;;;;3.47;2.65;;;;;;;5.80;100.00;95691.34;4920879;29;20055;-78
2021/01/30 03:58:45;;;;;;;2.60;2.35;;;;;;;5.71;100.00;95684.06;4917843;29;20127;-78
2021/01/30 04:01:11;;;;;;;9.27;3.45;;;;;;;5.79;100.00;95692.28;4920244;29;20062;-78
2021/01/30 04:03:37;;;;;;;12.57;6.00;;;;;;;5.70;100.00;95700.91;4917272;29;20441;-77
2021/01/30 04:06:03;;;;;;;15.73;6.25;;;;;;;5.61;100.00;95700.72;4903958;29;20035;-78
2021/01/30 04:08:29;;;;;;;5.55;4.10;;;;;;;5.60;100.00;95696.41;4920082;29;20090;-78
2021/01/30 04:10:54;;;;;;;3.20;2.38;;;;;;;5.63;100.00;95694.34;4903162;29;20055;-78
2021/01/30 04:13:20;;;;;;;5.63;3.30;;;;;;;5.64;100.00;95697.84;4935929;29;20042;-78
2021/01/30 04:15:46;;;;;;;5.45;2.70;;;;;;;5.60;100.00;95693.75;4920503;29;20038;-78
2021/01/30 04:18:12;;;;;;;5.13;3.45;;;;;;;5.55;100.00;95683.47;4901974;29;20031;-78
2021/01/30 04:20:38;;;;;;;3.60;3.00;;;;;;;5.63;100.00;95697.00;4917367;29;20092;-77
2021/01/30 04:23:05;;;;;;;1.75;1.55;;;;;;;5.58;100.00;95687.69;4917569;29;20036;-79
2021/01/30 04:25:31;;;;;;;4.38;2.38;;;;;;;5.58;100.00;95693.84;4915236;29;20560;-77
2021/01/30 04:27:56;;;;;;;3.05;1.95;;;;;;;5.59;100.00;95695.56;4909762;29;20044;-78
2021/01/30 04:30:25;;;;;;;5.13;2.83;;;;;;;5.57;100.00;95692.13;4919615;29;20031;-77
2021/01/30 04:32:51;;;;;;;4.95;2.35;;;;;;;5.63;100.00;95688.22;4919828;29;20027;-79
2021/01/30 04:35:20;;;;;;;3.15;2.38;;;;;;;5.66;100.00;95680.03;4919380;29;20078;-78
2021/01/30 04:37:46;;;;;;;2.45;1.17;;;;;;;5.61;100.00;95693.63;4919705;29;20039;-78
2021/01/30 04:40:21;;;;;;;1.67;1.27;;;;;;;5.64;100.00;95692.53;4903961;29;20415;-77
2021/01/30 04:43:08;;;;;;;3.60;1.17;;;;;;;5.62;100.00;95690.03;4888524;29;20497;-77
2021/01/30 04:45:55;;;;;;;0.50;0.47;;;;;;;5.60;100.00;95691.91;4903720;29;20043;-78
2021/01/30 04:48:34;;;;;;;1.50;1.15;;;;;;;5.56;100.00;95685.16;4916143;29;20613;-79
2021/01/30 04:51:16;;;;;;;1.70;1.38;;;;;;;5.57;100.00;95696.63;4919233;29;20484;-79
2021/01/30 04:53:55;;;;;;;1.25;1.23;;;;;;;5.55;100.00;95701.16;4919138;29;20047;-78
2021/01/30 04:56:29;;;;;;;1.38;1.05;;;;;;;5.56;100.00;95703.72;4918222;29;20052;-78
2021/01/30 04:59:05;;;;;;;0.95;0.95;;;;;;;5.59;100.00;95715.91;4919215;29;20035;-79
2021/01/30 05:01:57;;;;;;;0.63;0.63;;;;;;;5.58;100.00;95712.41;4903354;29;20456;-79
2021/01/30 05:04:27;;;;;;;0.73;0.73;;;;;;;5.63;100.00;95723.53;4934470;29;20091;-78
2021/01/30 05:06:56;;;;;;;1.50;1.13;;;;;;;5.63;100.00;95728.81;4916103;29;20284;-78
2021/01/30 05:09:49;;;;;;;0.73;0.73;;;;;;;5.68;100.00;95733.81;4918928;29;20411;-78
2021/01/30 05:12:43;;;;;;;0.88;0.88;;;;;;;5.66;100.00;95731.25;4917427;29;20031;-78
2021/01/30 05:15:29;;;;;;;0.63;0.63;;;;;;;5.58;100.00;95733.63;4915796;29;20034;-78
2021/01/30 05:17:59;;;;;;;1.80;1.70;;;;;;;5.46;100.00;95739.78;4900347;29;20074;-78
2021/01/30 05:20:28;;;;;;;1.38;0.95;;;;;;;5.48;100.00;95751.13;4917605;29;20028;-79
2021/01/30 05:22:54;;;;;;;2.05;1.80;;;;;;;5.53;100.00;95743.72;4915687;29;20036;-78
2021/01/30 05:25:22;;;;;;;0.95;0.95;;;;;;;5.53;100.00;95746.38;4919009;29;20519;-78
2021/01/30 05:28:13;;;;;;;2.25;1.58;;;;;;;5.59;100.00;95756.53;4902801;29;20428;-78
2021/01/30 05:31:19;;;;;;;1.45;1.33;;;;;;;5.58;100.00;95756.63;4926562;29;20036;-78
2021/01/30 05:34:00;;;;;;;1.13;1.02;;;;;;;5.58;100.00;95765.44;4915819;29;20131;-78
2021/01/30 05:36:44;;;;;;;0.80;0.80;;;;;;;5.49;100.00;95760.78;4914695;29;20064;-77
2021/01/30 05:39:28;;;;;;;2.55;1.67;;;;;;;5.50;100.00;95764.28;4902216;29;20397;-78
2021/01/30 05:42:11;;;;;;;1.65;1.55;;;;;;;5.43;100.00;95775.31;4929254;29;20055;-78
2021/01/30 05:45:03;;;;;;;1.38;0.88;;;;;;;5.47;100.00;95787.38;4899491;29;20132;-78
2021/01/30 05:47:30;;;;;;;1.13;1.13;;;;;;;5.36;100.00;95782.00;4894814;29;20027;-78
2021/01/30 05:50:02;;;;;;;3.08;1.25;;;;;;;5.34;100.00;95785.72;4902522;29;20496;-78
2021/01/30 05:52:33;;;;;;;1.67;1.08;;;;;;;5.35;100.00;95782.94;4918082;29;20492;-78
2021/01/30 05:54:58;;;;;;;2.17;1.25;;;;;;;5.40;100.00;95793.25;4918313;29;20044;-78
2021/01/30 05:57:24;;;;;;;8.45;2.63;;;;;;;5.36;100.00;95787.31;4899423;29;20107;-77
2021/01/30 05:59:57;;;;;;;1.95;1.30;;;;;;;5.12;100.00;95791.66;4915117;29;20028;-76
2021/01/30 06:02:23;;;;;;;;;;;;;;;4.97;100.00;95802.44;4900629;29;20039;-78
2021/01/30 06:04:49;;;;;;;3.63;1.85;;;;;;;4.96;100.00;95798.94;4949863;29;19915;-76
2021/01/30 06:07:36;;;;;;;1.33;0.80;;;;;;;5.05;100.00;95805.41;4917337;29;20039;-76
2021/01/30 06:10:30;;;;;;;2.70;1.70;;;;;;;4.97;100.00;95807.75;4921703;29;20032;-76
2021/01/30 06:13:23;;;;;;;1.40;1.02;;;;;;;4.92;100.00;95806.25;4901675;29;20031;-76
2021/01/30 06:15:53;;;;;;;1.42;1.33;;;;;;;4.89;100.00;95811.75;4900854;29;20050;-76
2021/01/30 06:18:29;;;;;;;0.77;0.77;;;;;;;4.91;100.00;95824.91;4916492;29;20036;-76
2021/01/30 06:21:04;;;;;;;4.30;1.67;;;;;;;4.83;100.00;95830.69;4917207;29;20036;-76
2021/01/30 06:23:30;;;;;;;3.60;1.45;;;;;;;4.84;100.00;95840.34;4916041;29;20409;-77
2021/01/30 06:26:19;;;;;;;0.68;0.68;;;;;;;4.84;100.00;95827.13;4917150;29;20034;-77
2021/01/30 06:28:48;;;;;;;0.98;0.98;;;;;;;4.83;100.00;95845.75;4909949;29;20054;-77
2021/01/30 06:31:24;;;;;;;3.13;1.75;;;;;;;4.86;100.00;95842.91;4929572;29;20097;-76
2021/01/30 06:33:56;;;;;;;1.95;1.25;;;;;;;5.01;100.00;95852.47;4895153;29;20515;-77
2021/01/30 06:36:27;;;;;;;3.00;2.03;;;;;;;4.97;100.00;95847.47;4916505;29;20030;-76
2021/01/30 06:38:52;;;;;;;8.80;3.65;;;;;;;5.01;100.00;95856.94;4929954;29;20086;-77
2021/01/30 06:41:38;;;;;;;4.18;2.55;;;;;;;4.97;100.00;95852.78;4913878;29;20221;-76
2021/01/30 06:44:19;;;;;;;6.60;5.32;;;;;;;4.99;100.00;95849.06;4928076;29;20492;-76
2021/01/30 06:47:11;;;;;;;4.57;3.55;;;;;;;4.98;100.00;95852.69;4908233;29;20492;-76
2021/01/30 06:49:42;;;;;;;11.38;3.58;;;;;;;4.96;100.00;95856.38;4908483;29;20496;-78
2021/01/30 06:52:18;;;;;;;7.22;5.47;;;;;;;4.96;100.00;95859.88;4913903;29;20025;-77
2021/01/30 06:54:44;;;;;;;21.13;12.65;;;;;;;4.95;100.00;95862.63;4924649;29;20028;-77
2021/01/30 06:57:26;;;;;;;5.38;4.72;;;;;;;4.90;100.00;95861.13;4898022;29;20046;-77
2021/01/30 06:59:55;;;;;;;;;;;;;;;4.89;100.00;95862.06;4915202;29;20409;-77
2021/01/30 07:02:25;;;;;;;5.97;3.35;;;;;;;4.73;100.00;95856.13;4917091;29;19919;-77
2021/01/30 07:05:29;;;;;;;2.22;1.92;;;;;;;4.81;100.00;95853.81;4898638;29;20036;-78
2021/01/30 07:08:16;;;;;;;2.60;2.40;;;;;;;4.78;100.00;95859.31;4916869;29;20082;-77
2021/01/30 07:11:24;;;;;;;8.50;2.60;;;;;;;4.72;100.00;95850.91;4914986;29;20072;-77
2021/01/30 07:14:09;;;;;;;3.10;2.17;;;;;;;4.77;100.00;95859.38;4891725;29;20496;-79
2021/01/30 07:16:37;;;;;;;3.28;2.33;;;;;;;4.83;100.00;95866.94;4913687;29;20489;-80
2021/01/30 07:19:37;;;;;;;6.82;3.08;;;;;;;4.86;100.00;95862.28;4916485;29;20068;-78
2021/01/30 07:22:17;;;;;;;1.70;1.42;;;;;;;4.96;100.00;95870.47;4916782;29;20039;-78
2021/01/30 07:24:51;;;;;;;4.45;3.20;;;;;;;5.03;100.00;95870.91;4909367;29;20028;-78
2021/01/30 07:27:37;;;;;;;7.82;5.82;;;;;;;5.05;100.00;95866.34;4925098;29;20035;-77
2021/01/30 07:30:48;;;;;;;12.65;7.35;;;;;;;5.08;100.00;95868.78;4910390;29;20087;-79
2021/01/30 07:33:18;;;;;;;4.80;3.03;;;;;;;5.12;100.00;95883.53;4898446;29;20077;-77
2021/01/30 07:36:13;;;;;;;4.03;3.22;;;;;;;5.11;100.00;95885.34;4890334;29;20114;-77
2021/01/30 07:38:56;;;;;;;3.58;2.03;;;;;;;5.07;100.00;95885.66;4903703;29;20043;-77
2021/01/30 07:41:40;;;;;;;4.40;2.83;;;;;;;5.08;100.00;95890.84;4909068;29;20084;-74
2021/01/30 07:44:14;;;;;;;5.25;3.45;;;;;;;5.10;100.00;95901.34;4902312;29;20039;-78
2021/01/30 07:46:44;;;;;;;6.43;3.13;;;;;;;5.22;100.00;95897.88;4906514;29;20035;-77
2021/01/30 07:49:18;;;;;;;5.53;2.25;;;;;;;5.27;99.36;95901.91;4909459;29;20051;-78
2021/01/30 07:51:52;;;;;;;3.63;1.05;;;;;;;5.45;97.99;95911.25;4919547;29;20031;-78
2021/01/30 07:54:18;;;;;;;0.93;0.90;;;;;;;5.56;98.04;95909.69;4910702;29;20357;-77
2021/01/30 07:57:18;;;;;;;1.23;1.17;;;;;;;5.63;99.51;95914.44;4905314;29;20914;-78
2021/01/30 07:59:56;;;;;;;2.13;1.95;;;;;;;5.65;100.00;95917.88;4902480;29;20040;-77
2021/01/30 08:02:40;;;;;;;11.00;2.92;;;;;;;5.63;100.00;95921.59;4901387;29;20421;-78
2021/01/30 08:05:45;;;;;;;3.83;2.85;;;;;;;5.52;100.00;95919.66;4909216;29;20412;-78
2021/01/30 08:08:30;;;;;;;0.70;0.70;;;;;;;5.50;100.00;95926.00;4928786;29;20040;-78
2021/01/30 08:11:02;;;;;;;1.13;0.88;;;;;;;5.35;100.00;95930.56;4895884;29;20038;-76
2021/01/30 08:13:51;;;;;;;0.43;0.43;;;;;;;5.42;100.00;95939.78;4901201;29;20036;-78
2021/01/30 08:16:39;;;;;;;4.78;2.47;;;;;;;5.38;100.00;95956.84;4907904;29;20047;-77
2021/01/30 08:19:08;;;;;;;4.10;2.70;;;;;;;5.27;100.00;95952.25;4904737;29;20032;-78
2021/01/30 08:21:43;;;;;;;1.15;1.02;;;;;;;5.20;100.00;95942.19;4888832;29;20032;-77
2021/01/30 08:24:27;;;;;;;8.13;3.85;;;;;;;5.40;100.00;95960.25;4902914;29;20357;-78
2021/01/30 08:27:02;;;;;;;12.55;4.75;;;;;;;5.45;100.00;95966.06;4915853;29;20125;-77
2021/01/30 08:29:43;;;;;;;3.50;2.78;;;;;;;5.46;100.00;95958.03;4929683;29;20164;-78
2021/01/30 08:32:23;;;;;;;4.40;2.78;;;;;;;5.54;100.00;95972.59;4899828;29;20040;-77
2021/01/30 08:34:57;;;;;;;2.20;2.00;;;;;;;5.41;100.00;95972.56;4912131;29;20034;-77
2021/01/30 08:37:25;;;;;;;3.47;2.75;;;;;;;5.41;100.00;95969.91;4918601;29;20068;-78
2021/01/30 08:40:13;;;;;;;5.18;2.63;;;;;;;5.40;99.52;95971.69;4918619;29;20038;-77
2021/01/30 08:43:02;;;;;;;3.20;2.90;;;;;;;5.36;100.00;95975.50;4899145;29;20028;-76
2021/01/30 08:45:33;;;;;;;7.88;3.08;;;;;;;5.32;100.00;95978.47;4900326;29;20404;-78
2021/01/30 08:48:04;;;;;;;13.98;5.00;;;;;;;5.23;100.00;95979.09;4903516;29;20036;-78
2021/01/30 08:50:42;;;;;;;6.60;3.53;;;;;;;5.35;100.00;95992.34;4915342;29;20492;-77
2021/01/30 08:53:12;;;;;;;5.32;2.85;;;;;;;5.46;100.00;95992.50;4918205;29;20059;-77
2021/01/30 08:55:44;;;;;;;2.45;1.70;;;;;;;5.48;99.84;95997.69;4924552;29;20098;-79
2021/01/30 08:58:37;;;;;;;3.30;2.53;;;;;;;5.49;100.00;96007.34;4917449;29;20464;-77
2021/01/30 09:01:09;;;;;;;3.67;1.17;;;;;;;5.44;99.34;96014.78;4928085;29;20028;-79
2021/01/30 09:03:51;;;;;;;1.17;0.82;;;;;;;5.52;98.79;96015.09;4927150;29;20555;-78
2021/01/30 09:06:38;;;;;;;1.85;1.38;;;;;;;5.51;99.68;96013.38;4918032;29;20122;-77
2021/01/30 09:09:18;;;;;;;5.15;3.50;;;;;;;5.35;100.00;96002.13;4921277;29;20102;-77
2021/01/30 09:11:52;;;;;;;4.22;2.08;;;;;;;5.41;100.00;96014.97;4907898;29;20024;-77
2021/01/30 09:14:18;;;;;;;1.60;1.08;;;;;;;5.47;100.00;96015.38;4930253;29;20039;-78
2021/01/30 09:17:06;;;;;;;2.40;2.20;;;;;;;5.59;100.00;96013.75;4915942;29;20036;-78
2021/01/30 09:19:46;;;;;;;1.38;1.27;;;;;;;5.68;99.50;96020.22;4914628;29;20064;-78
2021/01/30 09:22:35;;;;;;;1.77;1.67;;;;;;;5.68;100.00;95993.72;4917433;29;20054;-77
2021/01/30 09:25:19;;;;;;;1.60;1.23;;;;;;;5.84;100.00;96019.09;4924794;29;20039;-76
2021/01/30 09:27:59;;;;;;;2.13;1.63;;;;;;;5.74;100.00;96018.03;4917152;29;20047;-77
2021/01/30 09:30:31;;;;;;;2.42;2.05;;;;;;;5.72;100.00;96019.09;4901818;29;20078;-76
2021/01/30 09:33:00;;;;;;;3.88;2.47;;;;;;;5.49;100.00;96017.97;4917669;29;20031;-78
2021/01/30 09:35:37;;;;;;;4.70;2.58;;;;;;;5.47;100.00;96028.66;4899312;29;20472;-76
2021/01/30 09:38:26;;;;;;;2.08;1.25;;;;;;;5.42;100.00;96019.31;4898603;29;20207;-77
2021/01/30 09:41:24;;;;;;;3.47;1.67;;;;;;;5.44;100.00;96018.25;4915857;29;20042;-79
2021/01/30 09:44:09;;;;;;;2.15;1.88;;;;;;;5.39;100.00;96023.00;4897908;29;20047;-78
2021/01/30 09:46:38;;;;;;;0.82;0.82;;;;;;;5.34;100.00;96019.81;4916830;29;20492;-78
2021/01/30 09:49:06;;;;;;;2.80;2.30;;;;;;;5.35;100.00;96012.72;4898048;29;20035;-78
2021/01/30 09:51:41;;;;;;;2.97;2.67;;;;;;;5.34;100.00;96003.94;4901070;29;20028;-77
2021/01/30 09:54:08;;;;;;;8.93;4.32;;;;;;;5.50;100.00;96001.09;4901080;29;20127;-77
2021/01/30 09:56:36;;;;;;;6.60;3.35;;;;;;;5.51;100.00;96002.78;4917918;29;20036;-78
2021/01/30 09:59:06;;;;;;;5.45;3.83;;;;;;;5.62;100.00;95999.44;4899644;29;20058;-77
2021/01/30 10:01:41;;;;;;;2.13;1.95;;;;;;;6.02;100.00;95998.44;4913872;29;20036;-76
2021/01/30 10:04:25;;;;;;;3.08;1.85;;;;;;;6.53;96.32;95991.28;4896700;29;20075;-78
2021/01/30 10:07:11;;;;;;;9.23;4.22;;;;;;;7.30;94.06;95998.91;4897205;29;20455;-77
2021/01/30 10:09:42;;;;;;;2.40;2.17;;;;;;;8.14;89.60;95996.94;4896997;29;20039;-76
2021/01/30 10:12:08;;;;;;;18.23;9.52;;;;;;;8.83;83.70;95992.38;4915465;29;20054;-79
2021/01/30 10:14:39;;;;;;;6.18;3.60;;;;;;;9.66;81.97;95989.97;4915817;29;20043;-79
2021/01/30 10:17:09;;;;;;;1.20;1.10;;;;;;;11.63;74.22;95999.41;4899084;29;20039;-79
2021/01/30 10:19:36;;;;;;;1.65;1.10;;;;;;;12.88;66.61;95984.00;4912468;29;20036;-78
2021/01/30 10:22:18;;;;;;;2.05;1.85;;;;;;;13.60;64.50;95996.66;4897764;29;20041;-79
2021/01/30 10:24:44;;;;;;;0.95;0.85;;;;;;;14.05;60.22;95990.25;4912188;29;20032;-78
2021/01/30 10:27:15;;;;;;;1.45;0.70;;;;;;;15.31;56.48;95997.81;4896374;29;20123;-78
2021/01/30 10:29:41;;;;;;;0.52;0.45;;;;;;;16.16;51.82;96003.81;4897143;29;20051;-79
2021/01/30 10:32:32;;;;;;;3.50;1.30;;;;;;;16.12;53.14;96005.13;4914641;29;20139;-79
2021/01/30 10:35:01;;;;;;;0.80;0.40;;;;;;;16.65;50.15;96012.78;4909612;29;20044;-79
2021/01/30 10:37:36;;;;;;;1.58;0.73;;;;;;;17.01;50.13;96009.69;4912464;29;20740;-79
2021/01/30 10:40:09;;;;;;;1.15;1.05;;;;;;;16.77;48.44;96013.25;4924210;29;20481;-78
2021/01/30 10:42:36;;;;;;;3.88;0.77;;;;;;;15.91;50.92;96012.00;4896146;29;20044;-80
2021/01/30 10:45:05;;;;;;;0.50;0.50;;;;;;;16.75;47.54;96008.06;4898821;29;20039;-79
2021/01/30 10:47:31;;;;;;;2.88;1.30;;;;;;;17.39;45.95;96008.91;4911945;29;20107;-80
2021/01/30 10:50:15;;;;;;;2.17;1.27;;;;;;;18.24;44.26;96012.56;4899359;29;20571;-78
2021/01/30 10:52:40;;;;;;;0.45;0.45;;;;;;;17.53;46.12;96002.78;4912855;29;20043;-78
2021/01/30 10:55:29;;;;;;;1.60;0.60;;;;;;;17.72;44.96;96007.75;4897424;29;20477;-79
2021/01/30 10:58:16;;;;;;;0.57;0.30;;;;;;;18.45;44.22;96003.75;4914578;29;20046;-80
2021/01/30 11:00:42;;;;;;;0.82;0.60;;;;;;;18.62;42.69;95989.94;4914743;29;20130;-79
2021/01/30 11:03:40;;;;;;;0.82;0.82;;;;;;;19.70;42.39;96010.16;4913015;29;20457;-77
2021/01/30 11:06:40;;;;;;;1.33;1.23;;;;;;;20.05;40.80;96016.66;4927617;29;20035;-75
2021/01/30 11:09:11;;;;;;;3.33;2.10;;;;;;;20.93;38.07;96011.72;4928313;29;20031;-75
2021/01/30 11:11:37;;;;;;;1.83;1.40;;;;;;;20.76;39.94;95999.44;4915058;29;20028;-76
2021/01/30 11:14:22;;;;;;;3.20;0.75;;;;;;;21.20;37.02;96001.03;4927542;29;20497;-75
2021/01/30 11:16:47;;;;;;;1.20;1.00;;;;;;;21.20;38.51;95996.44;4913686;29;20035;-77
2021/01/30 11:19:27;;;;;;;2.38;1.10;;;;;;;20.44;40.31;95994.53;4926980;29;20032;-75
2021/01/30 11:22:11;;;;;;;1.25;1.15;;;;;;;20.51;39.59;96006.31;4913815;29;20040;-77
2021/01/30 11:24:47;;;;;;;2.38;1.73;;;;;;;21.47;39.25;95998.31;4919686;29;20040;-76
2021/01/30 11:27:46;;;;;;;0.65;0.32;;;;;;;21.49;37.73;96006.28;4930325;29;20028;-75
2021/01/30 11:30:18;;;;;;;2.00;1.48;;;;;;;22.05;35.08;96007.84;4906666;29;20161;-74
2021/01/30 11:32:50;;;;;;;2.63;0.85;;;;;;;20.98;38.96;96011.94;4912182;29;20493;-76
2021/01/30 11:35:50;;;;;;;2.13;1.45;;;;;;;21.40;37.00;96015.63;4917971;29;20043;-75
2021/01/30 11:38:27;;;;;;;3.20;2.38;;;;;;;21.51;35.70;96010.47;4894004;29;20120;-77
2021/01/30 11:40:55;;;;;;;4.00;2.47;;;;;;;22.08;35.47;96014.78;4922602;29;20027;-78
2021/01/30 11:43:21;;;;;;;5.97;3.00;;;;;;;21.67;36.05;96011.19;4933503;29;20024;-77
2021/01/30 11:45:48;;;;;;;4.70;2.28;;;;;;;21.61;37.50;96023.72;4917971;29;20043;-76
2021/01/30 11:48:14;;;;;;;3.40;3.10;;;;;;;21.54;36.98;96020.09;4904144;29;20038;-77
2021/01/30 11:50:40;;;;;;;5.63;2.22;;;;;;;21.98;36.82;96001.53;4903783;29;20034;-79
2021/01/30 11:53:19;;;;;;;3.53;2.38;;;;;;;22.15;35.21;96012.91;4903165;29;20027;-77
2021/01/30 11:55:45;;;;;;;4.95;3.10;;;;;;;22.31;35.78;96014.41;4917901;29;20063;-77
2021/01/30 11:58:12;;;;;;;3.47;2.50;;;;;;;23.35;33.10;96010.97;4920080;29;20063;-77
2021/01/30 12:00:41;;;;;;;8.18;3.72;;;;;;;23.22;34.67;96030.09;4904518;29;20085;-80
2021/01/30 12:03:33;;;;;;;9.88;3.25;;;;;;;23.33;34.58;95984.94;4914282;29;20034;-80
2021/01/30 12:05:59;;;;;;;4.57;2.10;;;;;;;23.03;34.72;96009.97;4901728;29;20043;-77
2021/01/30 12:08:34;;;;;;;5.45;3.13;;;;;;;23.20;32.96;95972.16;4919026;29;20028;-77